Accueil
METAR-TAF:

METAR-TAF

Aéroports :

Kodiak, Alaska, États-Unis

latitude: 57-45N, longitude: 152-30W, altitude: 22 m

Observation

Le bulletin a été fait il y a 53 minutes, à 22:53 UTC
Vent 6 kt de nord-ouest
Température -3°C
Humidité 58%
Pression 1006 hPa
Visibilité: 16.1 km
Quelques nuages à une hauteur de 4100 ft

METAR: PADQ 222253Z 31006KT 10SM FEW041 M03/M10 A2971 RMK AO2 SLP062 T10281100

Heure: 14:46 (23:46 UTC)

Prévision

Le bulletin a été fait il y a 12 minutes, à 23:34 UTC
Prévision valable du 23 à 00 UTC au 23 à 24 UTC
Vent 10 kt de nord-ouest
Visibilité: 10 km
Quelques nuages à une hauteur de 4000 ft
A partir de 23 à 0900 UTC
Vent 12 kt de nord-ouest avec des rafales jusqu'à 22 kt
Visibilité: 10 km
Ciel clair
A partir de 23 à 1400 UTC
Vent 18 kt de nord-ouest avec des rafales jusqu'à 30 kt
Visibilité: 10 km
Ciel clair

TAF: PADQ 222334Z 2300/2324 31010KT P6SM FEW040 FM230900 31012G22KT P6SM SKC FM231400 31018G30KT P6SM SKC

Observations et prévisions météorologiques de plus de 4000 aéroports (messages METAR et TAF).

Les stations disponibles sont représentées par des disques jaunes et rouges sur la carte.

Passer la souris dessus pour voir le nom de la station.

Cliquer dessus pour voir les observations et prévisions météorologiques.

Pour changer de carte: cliquez sur les boutons verts avec une croix noire pour zoomer, sur le bouton vert avec un tiret pour effectuer un zoom arrière, ou sur les flèches vertes pour les cartes adjacentes.


METAR-TAF: